sensor_id;sensor_type;location;lat;lon;timestamp;temperature;humidity
17845;DHT22;9047;53.486;10.218;2023-05-18T00:01:37;8.70;99.90
17845;DHT22;9047;53.486;10.218;2023-05-18T00:04:08;8.70;99.90
17845;DHT22;9047;53.486;10.218;2023-05-18T00:06:36;8.70;99.90
17845;DHT22;9047;53.486;10.218;2023-05-18T00:09:03;8.70;99.90
17845;DHT22;9047;53.486;10.218;2023-05-18T00:11:31;8.60;99.90
17845;DHT22;9047;53.486;10.218;2023-05-18T00:13:59;8.60;99.90
17845;DHT22;9047;53.486;10.218;2023-05-18T00:16:29;8.60;99.90
17845;DHT22;9047;53.486;10.218;2023-05-18T00:18:56;8.60;99.90
17845;DHT22;9047;53.486;10.218;2023-05-18T00:21:23;8.60;99.90
17845;DHT22;9047;53.486;10.218;2023-05-18T00:23:55;8.50;99.90
17845;DHT22;9047;53.486;10.218;2023-05-18T00:26:23;8.60;99.90
17845;DHT22;9047;53.486;10.218;2023-05-18T00:28:51;8.60;99.90
17845;DHT22;9047;53.486;10.218;2023-05-18T00:31:19;8.60;99.90
17845;DHT22;9047;53.486;10.218;2023-05-18T00:33:47;8.60;99.90
17845;DHT22;9047;53.486;10.218;2023-05-18T00:36:15;8.60;99.90
17845;DHT22;9047;53.486;10.218;2023-05-18T00:38:42;8.60;99.90
17845;DHT22;9047;53.486;10.218;2023-05-18T00:41:09;8.60;99.90
17845;DHT22;9047;53.486;10.218;2023-05-18T00:43:39;8.60;99.90
17845;DHT22;9047;53.486;10.218;2023-05-18T00:46:06;8.60;99.90
17845;DHT22;9047;53.486;10.218;2023-05-18T00:48:34;8.70;99.90
17845;DHT22;9047;53.486;10.218;2023-05-18T00:51:03;8.60;99.90
17845;DHT22;9047;53.486;10.218;2023-05-18T00:53:31;8.60;99.90
17845;DHT22;9047;53.486;10.218;2023-05-18T00:55:58;8.60;99.90
17845;DHT22;9047;53.486;10.218;2023-05-18T00:58:25;8.50;99.90
17845;DHT22;9047;53.486;10.218;2023-05-18T01:00:52;8.60;99.90
17845;DHT22;9047;53.486;10.218;2023-05-18T01:03:19;8.50;99.90
17845;DHT22;9047;53.486;10.218;2023-05-18T01:05:47;8.60;99.90
17845;DHT22;9047;53.486;10.218;2023-05-18T01:08:16;8.60;99.90
17845;DHT22;9047;53.486;10.218;2023-05-18T01:10:45;8.60;99.90
17845;DHT22;9047;53.486;10.218;2023-05-18T01:13:22;8.60;99.90
17845;DHT22;9047;53.486;10.218;2023-05-18T01:15:53;8.60;99.90
17845;DHT22;9047;53.486;10.218;2023-05-18T01:18:27;8.60;99.90
17845;DHT22;9047;53.486;10.218;2023-05-18T01:20:58;8.50;99.90
17845;DHT22;9047;53.486;10.218;2023-05-18T01:26:33;8.50;99.90
17845;DHT22;9047;53.486;10.218;2023-05-18T01:29:05;8.50;99.90
17845;DHT22;9047;53.486;10.218;2023-05-18T01:31:33;8.50;99.90
17845;DHT22;9047;53.486;10.218;2023-05-18T01:34:00;8.50;99.90
17845;DHT22;9047;53.486;10.218;2023-05-18T01:36:28;8.50;99.90
17845;DHT22;9047;53.486;10.218;2023-05-18T01:38:56;8.50;99.90
17845;DHT22;9047;53.486;10.218;2023-05-18T01:41:27;8.50;99.90
17845;DHT22;9047;53.486;10.218;2023-05-18T01:44:02;8.50;99.90
17845;DHT22;9047;53.486;10.218;2023-05-18T01:46:35;8.50;99.90
17845;DHT22;9047;53.486;10.218;2023-05-18T01:49:10;8.40;99.90
17845;DHT22;9047;53.486;10.218;2023-05-18T01:51:47;8.50;99.90
17845;DHT22;9047;53.486;10.218;2023-05-18T01:54:18;8.50;99.90
17845;DHT22;9047;53.486;10.218;2023-05-18T01:56:49;8.50;99.90
17845;DHT22;9047;53.486;10.218;2023-05-18T01:59:20;8.50;99.90
17845;DHT22;9047;53.486;10.218;2023-05-18T02:01:50;8.40;99.90
17845;DHT22;9047;53.486;10.218;2023-05-18T02:04:17;8.40;99.90
17845;DHT22;9047;53.486;10.218;2023-05-18T02:06:45;8.40;99.90
17845;DHT22;9047;53.486;10.218;2023-05-18T02:09:14;8.40;99.90
17845;DHT22;9047;53.486;10.218;2023-05-18T02:11:41;8.40;99.90
17845;DHT22;9047;53.486;10.218;2023-05-18T02:14:10;8.30;99.90
17845;DHT22;9047;53.486;10.218;2023-05-18T02:16:38;8.40;99.90
17845;DHT22;9047;53.486;10.218;2023-05-18T02:19:12;8.40;99.90
17845;DHT22;9047;53.486;10.218;2023-05-18T02:21:39;8.30;99.90
17845;DHT22;9047;53.486;10.218;2023-05-18T02:24:07;8.30;99.90
17845;DHT22;9047;53.486;10.218;2023-05-18T02:26:35;8.20;99.90
17845;DHT22;9047;53.486;10.218;2023-05-18T02:29:03;8.30;99.90
17845;DHT22;9047;53.486;10.218;2023-05-18T02:31:31;8.30;99.90
17845;DHT22;9047;53.486;10.218;2023-05-18T02:34:02;8.20;99.90
17845;DHT22;9047;53.486;10.218;2023-05-18T02:36:29;8.20;99.90
17845;DHT22;9047;53.486;10.218;2023-05-18T02:39:01;8.30;99.90
17845;DHT22;9047;53.486;10.218;2023-05-18T02:41:29;8.20;99.90
17845;DHT22;9047;53.486;10.218;2023-05-18T02:43:58;8.10;99.90
17845;DHT22;9047;53.486;10.218;2023-05-18T02:46:26;8.10;99.90
17845;DHT22;9047;53.486;10.218;2023-05-18T02:48:53;8.10;99.90
17845;DHT22;9047;53.486;10.218;2023-05-18T02:51:22;8.10;99.90
17845;DHT22;9047;53.486;10.218;2023-05-18T02:53:49;8.20;99.90
17845;DHT22;9047;53.486;10.218;2023-05-18T02:56:18;8.10;99.90
17845;DHT22;9047;53.486;10.218;2023-05-18T02:58:46;8.10;99.90
17845;DHT22;9047;53.486;10.218;2023-05-18T03:01:13;8.10;99.90
17845;DHT22;9047;53.486;10.218;2023-05-18T03:03:41;8.10;99.90
17845;DHT22;9047;53.486;10.218;2023-05-18T03:06:08;8.10;99.90
17845;DHT22;9047;53.486;10.218;2023-05-18T03:08:36;8.10;99.90
17845;DHT22;9047;53.486;10.218;2023-05-18T03:11:05;8.10;99.90
17845;DHT22;9047;53.486;10.218;2023-05-18T03:13:33;8.10;99.90
17845;DHT22;9047;53.486;10.218;2023-05-18T03:16:00;8.10;99.90
17845;DHT22;9047;53.486;10.218;2023-05-18T03:18:27;8.00;99.90
17845;DHT22;9047;53.486;10.218;2023-05-18T03:20:55;8.00;99.90
17845;DHT22;9047;53.486;10.218;2023-05-18T03:23:26;8.00;99.90
17845;DHT22;9047;53.486;10.218;2023-05-18T03:25:59;8.00;99.90
17845;DHT22;9047;53.486;10.218;2023-05-18T03:28:27;8.00;99.90
17845;DHT22;9047;53.486;10.218;2023-05-18T03:30:54;8.00;99.90
17845;DHT22;9047;53.486;10.218;2023-05-18T03:33:25;8.00;99.90
17845;DHT22;9047;53.486;10.218;2023-05-18T03:36:02;8.00;99.90
17845;DHT22;9047;53.486;10.218;2023-05-18T03:38:39;8.00;99.90
17845;DHT22;9047;53.486;10.218;2023-05-18T03:41:12;8.00;99.90
17845;DHT22;9047;53.486;10.218;2023-05-18T03:43:39;8.00;99.90
17845;DHT22;9047;53.486;10.218;2023-05-18T03:46:08;8.00;99.90
17845;DHT22;9047;53.486;10.218;2023-05-18T03:48:37;8.00;99.90
17845;DHT22;9047;53.486;10.218;2023-05-18T03:51:05;8.10;99.90
17845;DHT22;9047;53.486;10.218;2023-05-18T03:53:33;8.10;99.90
17845;DHT22;9047;53.486;10.218;2023-05-18T03:56:00;8.10;99.90
17845;DHT22;9047;53.486;10.218;2023-05-18T03:58:29;8.10;99.90
17845;DHT22;9047;53.486;10.218;2023-05-18T04:00:57;8.20;99.90
17845;DHT22;9047;53.486;10.218;2023-05-18T04:03:25;8.20;99.90
17845;DHT22;9047;53.486;10.218;2023-05-18T04:05:54;8.20;99.90
17845;DHT22;9047;53.486;10.218;2023-05-18T04:08:22;8.10;99.90
17845;DHT22;9047;53.486;10.218;2023-05-18T04:10:50;8.20;99.90
17845;DHT22;9047;53.486;10.218;2023-05-18T04:13:17;8.20;99.90
17845;DHT22;9047;53.486;10.218;2023-05-18T04:15:46;8.30;99.90
17845;DHT22;9047;53.486;10.218;2023-05-18T04:18:14;8.30;99.90
17845;DHT22;9047;53.486;10.218;2023-05-18T04:20:41;8.30;99.90
17845;DHT22;9047;53.486;10.218;2023-05-18T04:23:10;8.40;99.90
17845;DHT22;9047;53.486;10.218;2023-05-18T04:25:37;8.40;99.90
17845;DHT22;9047;53.486;10.218;2023-05-18T04:28:06;8.50;99.90
17845;DHT22;9047;53.486;10.218;2023-05-18T04:30:35;8.40;99.90
17845;DHT22;9047;53.486;10.218;2023-05-18T04:33:03;8.40;99.90
17845;DHT22;9047;53.486;10.218;2023-05-18T04:35:31;8.50;99.90
17845;DHT22;9047;53.486;10.218;2023-05-18T04:37:58;8.50;99.90
17845;DHT22;9047;53.486;10.218;2023-05-18T04:40:27;8.50;99.90
17845;DHT22;9047;53.486;10.218;2023-05-18T04:42:58;8.60;99.90
17845;DHT22;9047;53.486;10.218;2023-05-18T04:45:27;8.60;99.90
17845;DHT22;9047;53.486;10.218;2023-05-18T04:47:57;8.70;99.90
17845;DHT22;9047;53.486;10.218;2023-05-18T04:50:29;8.70;99.90
17845;DHT22;9047;53.486;10.218;2023-05-18T04:52:57;8.70;99.90
17845;DHT22;9047;53.486;10.218;2023-05-18T04:55:28;8.70;99.90
17845;DHT22;9047;53.486;10.218;2023-05-18T04:57:56;8.80;99.90
17845;DHT22;9047;53.486;10.218;2023-05-18T05:00:26;8.70;99.90
17845;DHT22;9047;53.486;10.218;2023-05-18T05:02:58;8.80;99.90
17845;DHT22;9047;53.486;10.218;2023-05-18T05:05:26;8.80;99.90
17845;DHT22;9047;53.486;10.218;2023-05-18T05:07:56;8.80;99.80
17845;DHT22;9047;53.486;10.218;2023-05-18T05:10:31;8.80;99.70
17845;DHT22;9047;53.486;10.218;2023-05-18T05:13:00;8.80;99.70
17845;DHT22;9047;53.486;10.218;2023-05-18T05:15:27;8.90;99.90
17845;DHT22;9047;53.486;10.218;2023-05-18T05:17:54;8.80;99.90
17845;DHT22;9047;53.486;10.218;2023-05-18T05:20:22;8.90;99.90
17845;DHT22;9047;53.486;10.218;2023-05-18T05:22:52;8.90;99.90
17845;DHT22;9047;53.486;10.218;2023-05-18T05:25:36;9.00;99.70
17845;DHT22;9047;53.486;10.218;2023-05-18T05:28:03;9.10;99.90
17845;DHT22;9047;53.486;10.218;2023-05-18T05:30:31;9.10;99.90
17845;DHT22;9047;53.486;10.218;2023-05-18T05:33:01;9.20;99.70
17845;DHT22;9047;53.486;10.218;2023-05-18T05:35:28;9.20;99.60
17845;DHT22;9047;53.486;10.218;2023-05-18T05:37:55;9.30;99.70
17845;DHT22;9047;53.486;10.218;2023-05-18T05:40:24;9.30;99.70
17845;DHT22;9047;53.486;10.218;2023-05-18T05:42:53;9.40;99.90
17845;DHT22;9047;53.486;10.218;2023-05-18T05:45:21;9.40;99.90
17845;DHT22;9047;53.486;10.218;2023-05-18T05:47:48;9.50;99.90
17845;DHT22;9047;53.486;10.218;2023-05-18T05:50:17;9.60;99.20
17845;DHT22;9047;53.486;10.218;2023-05-18T05:52:48;9.60;99.10
17845;DHT22;9047;53.486;10.218;2023-05-18T05:55:15;9.70;98.80
17845;DHT22;9047;53.486;10.218;2023-05-18T05:57:42;9.60;98.60
17845;DHT22;9047;53.486;10.218;2023-05-18T06:00:13;9.80;98.70
17845;DHT22;9047;53.486;10.218;2023-05-18T06:02:42;9.80;98.40
17845;DHT22;9047;53.486;10.218;2023-05-18T06:05:10;9.90;98.50
17845;DHT22;9047;53.486;10.218;2023-05-18T06:07:36;9.90;98.70
17845;DHT22;9047;53.486;10.218;2023-05-18T06:10:15;10.00;98.50
17845;DHT22;9047;53.486;10.218;2023-05-18T06:12:43;10.00;98.60
17845;DHT22;9047;53.486;10.218;2023-05-18T06:15:13;10.00;98.30
17845;DHT22;9047;53.486;10.218;2023-05-18T06:17:40;10.20;98.10
17845;DHT22;9047;53.486;10.218;2023-05-18T06:20:09;10.20;97.70
17845;DHT22;9047;53.486;10.218;2023-05-18T06:22:41;10.30;97.60
17845;DHT22;9047;53.486;10.218;2023-05-18T06:25:09;10.30;97.90
17845;DHT22;9047;53.486;10.218;2023-05-18T06:27:36;10.40;97.90
17845;DHT22;9047;53.486;10.218;2023-05-18T06:30:04;10.40;98.10
17845;DHT22;9047;53.486;10.218;2023-05-18T06:32:34;10.50;98.10
17845;DHT22;9047;53.486;10.218;2023-05-18T06:35:02;10.50;97.50
17845;DHT22;9047;53.486;10.218;2023-05-18T06:37:29;10.60;97.70
17845;DHT22;9047;53.486;10.218;2023-05-18T06:39:56;10.60;97.50
17845;DHT22;9047;53.486;10.218;2023-05-18T06:42:27;10.60;97.80
17845;DHT22;9047;53.486;10.218;2023-05-18T06:44:54;10.70;97.20
17845;DHT22;9047;53.486;10.218;2023-05-18T06:47:21;10.60;97.30
17845;DHT22;9047;53.486;10.218;2023-05-18T06:49:50;10.70;97.30
17845;DHT22;9047;53.486;10.218;2023-05-18T06:52:17;10.80;97.10
17845;DHT22;9047;53.486;10.218;2023-05-18T06:54:44;10.90;97.10
17845;DHT22;9047;53.486;10.218;2023-05-18T06:57:11;11.00;96.80
17845;DHT22;9047;53.486;10.218;2023-05-18T06:59:41;11.10;97.00
17845;DHT22;9047;53.486;10.218;2023-05-18T07:02:08;11.10;96.90
17845;DHT22;9047;53.486;10.218;2023-05-18T07:04:36;11.30;97.10
17845;DHT22;9047;53.486;10.218;2023-05-18T07:07:05;11.30;97.00
17845;DHT22;9047;53.486;10.218;2023-05-18T07:09:32;11.40;96.30
17845;DHT22;9047;53.486;10.218;2023-05-18T07:11:59;11.50;96.30
17845;DHT22;9047;53.486;10.218;2023-05-18T07:14:26;11.70;95.60
17845;DHT22;9047;53.486;10.218;2023-05-18T07:16:53;12.10;95.50
17845;DHT22;9047;53.486;10.218;2023-05-18T07:19:21;12.50;95.10
17845;DHT22;9047;53.486;10.218;2023-05-18T07:21:48;12.70;94.30
17845;DHT22;9047;53.486;10.218;2023-05-18T07:24:16;12.70;94.00
17845;DHT22;9047;53.486;10.218;2023-05-18T07:26:44;12.60;94.00
17845;DHT22;9047;53.486;10.218;2023-05-18T07:29:11;12.70;94.70
17845;DHT22;9047;53.486;10.218;2023-05-18T07:31:40;13.20;93.50
17845;DHT22;9047;53.486;10.218;2023-05-18T07:34:07;13.60;92.50
17845;DHT22;9047;53.486;10.218;2023-05-18T07:36:34;13.50;92.90
17845;DHT22;9047;53.486;10.218;2023-05-18T07:39:02;13.50;93.40
17845;DHT22;9047;53.486;10.218;2023-05-18T07:41:30;13.20;93.70
17845;DHT22;9047;53.486;10.218;2023-05-18T07:43:58;13.10;94.00
17845;DHT22;9047;53.486;10.218;2023-05-18T07:46:34;13.00;94.30
17845;DHT22;9047;53.486;10.218;2023-05-18T07:49:08;13.00;93.40
17845;DHT22;9047;53.486;10.218;2023-05-18T07:51:42;13.10;93.90
17845;DHT22;9047;53.486;10.218;2023-05-18T07:54:11;13.00;92.90
17845;DHT22;9047;53.486;10.218;2023-05-18T07:56:42;12.80;93.20
17845;DHT22;9047;53.486;10.218;2023-05-18T07:59:10;12.60;93.20
17845;DHT22;9047;53.486;10.218;2023-05-18T08:01:37;12.60;93.50
17845;DHT22;9047;53.486;10.218;2023-05-18T08:07:27;12.50;93.70
17845;DHT22;9047;53.486;10.218;2023-05-18T08:09:55;12.50;94.10
17845;DHT22;9047;53.486;10.218;2023-05-18T08:12:24;12.60;93.70
17845;DHT22;9047;53.486;10.218;2023-05-18T08:14:51;12.80;93.70
17845;DHT22;9047;53.486;10.218;2023-05-18T08:17:20;13.10;93.30
17845;DHT22;9047;53.486;10.218;2023-05-18T08:19:49;13.40;92.90
17845;DHT22;9047;53.486;10.218;2023-05-18T08:22:18;13.40;92.60
17845;DHT22;9047;53.486;10.218;2023-05-18T08:24:45;13.50;92.00
17845;DHT22;9047;53.486;10.218;2023-05-18T08:27:12;13.40;92.20
17845;DHT22;9047;53.486;10.218;2023-05-18T08:29:40;13.40;92.40
17845;DHT22;9047;53.486;10.218;2023-05-18T08:32:07;13.20;92.90
17845;DHT22;9047;53.486;10.218;2023-05-18T08:34:34;13.10;92.70
17845;DHT22;9047;53.486;10.218;2023-05-18T08:37:01;13.00;92.60
17845;DHT22;9047;53.486;10.218;2023-05-18T08:39:28;12.80;92.80
17845;DHT22;9047;53.486;10.218;2023-05-18T08:42:00;12.50;92.90
17845;DHT22;9047;53.486;10.218;2023-05-18T08:44:30;12.30;93.10
17845;DHT22;9047;53.486;10.218;2023-05-18T08:47:19;12.20;93.60
17845;DHT22;9047;53.486;10.218;2023-05-18T08:50:00;12.30;93.40
17845;DHT22;9047;53.486;10.218;2023-05-18T08:52:30;12.60;93.80
17845;DHT22;9047;53.486;10.218;2023-05-18T08:55:04;12.90;93.30
17845;DHT22;9047;53.486;10.218;2023-05-18T08:57:32;13.10;92.80
17845;DHT22;9047;53.486;10.218;2023-05-18T09:00:02;13.30;93.00
17845;DHT22;9047;53.486;10.218;2023-05-18T09:02:31;13.60;92.60
17845;DHT22;9047;53.486;10.218;2023-05-18T09:05:02;13.80;92.80
17845;DHT22;9047;53.486;10.218;2023-05-18T09:07:29;14.00;92.10
17845;DHT22;9047;53.486;10.218;2023-05-18T09:09:57;14.20;91.50
17845;DHT22;9047;53.486;10.218;2023-05-18T09:12:26;14.20;91.80
17845;DHT22;9047;53.486;10.218;2023-05-18T09:14:54;14.20;92.10
17845;DHT22;9047;53.486;10.218;2023-05-18T09:17:22;14.30;92.20
17845;DHT22;9047;53.486;10.218;2023-05-18T09:19:50;14.20;91.30
17845;DHT22;9047;53.486;10.218;2023-05-18T09:22:17;14.20;91.90
17845;DHT22;9047;53.486;10.218;2023-05-18T09:24:44;14.20;91.40
17845;DHT22;9047;53.486;10.218;2023-05-18T09:27:12;14.20;91.70
17845;DHT22;9047;53.486;10.218;2023-05-18T09:29:51;14.20;91.20
17845;DHT22;9047;53.486;10.218;2023-05-18T09:32:18;14.30;90.90
17845;DHT22;9047;53.486;10.218;2023-05-18T09:34:46;14.30;90.70
17845;DHT22;9047;53.486;10.218;2023-05-18T09:37:17;14.30;91.30
17845;DHT22;9047;53.486;10.218;2023-05-18T09:39:45;14.30;91.30
17845;DHT22;9047;53.486;10.218;2023-05-18T09:42:26;14.30;91.10
17845;DHT22;9047;53.486;10.218;2023-05-18T09:45:36;14.40;90.80
17845;DHT22;9047;53.486;10.218;2023-05-18T09:58:06;14.60;90.90
17845;DHT22;9047;53.486;10.218;2023-05-18T10:00:40;14.70;90.30
17845;DHT22;9047;53.486;10.218;2023-05-18T10:03:20;14.80;90.40
17845;DHT22;9047;53.486;10.218;2023-05-18T10:05:48;15.00;90.30
17845;DHT22;9047;53.486;10.218;2023-05-18T10:08:40;14.90;90.00
17845;DHT22;9047;53.486;10.218;2023-05-18T10:11:10;15.00;89.60
17845;DHT22;9047;53.486;10.218;2023-05-18T10:13:40;14.80;90.40
17845;DHT22;9047;53.486;10.218;2023-05-18T10:16:09;14.80;90.80
17845;DHT22;9047;53.486;10.218;2023-05-18T10:18:37;14.70;91.10
17845;DHT22;9047;53.486;10.218;2023-05-18T10:21:05;14.80;91.60
17845;DHT22;9047;53.486;10.218;2023-05-18T10:23:34;15.00;90.60
17845;DHT22;9047;53.486;10.218;2023-05-18T10:26:04;15.00;90.30
17845;DHT22;9047;53.486;10.218;2023-05-18T10:28:37;15.00;90.70
17845;DHT22;9047;53.486;10.218;2023-05-18T10:31:07;15.00;90.40
17845;DHT22;9047;53.486;10.218;2023-05-18T10:33:35;15.00;90.30
17845;DHT22;9047;53.486;10.218;2023-05-18T10:36:04;15.10;89.30
17845;DHT22;9047;53.486;10.218;2023-05-18T10:38:36;15.00;88.70
17845;DHT22;9047;53.486;10.218;2023-05-18T10:41:05;15.00;90.00
17845;DHT22;9047;53.486;10.218;2023-05-18T10:43:33;15.00;90.20
17845;DHT22;9047;53.486;10.218;2023-05-18T10:46:02;15.10;90.00
17845;DHT22;9047;53.486;10.218;2023-05-18T10:48:38;15.10;89.10
17845;DHT22;9047;53.486;10.218;2023-05-18T10:51:06;15.10;90.00
17845;DHT22;9047;53.486;10.218;2023-05-18T10:53:34;15.20;88.90
17845;DHT22;9047;53.486;10.218;2023-05-18T10:56:03;15.20;88.70
17845;DHT22;9047;53.486;10.218;2023-05-18T10:58:30;15.20;89.80
17845;DHT22;9047;53.486;10.218;2023-05-18T11:01:00;15.10;88.50
17845;DHT22;9047;53.486;10.218;2023-05-18T11:03:28;15.20;88.60
17845;DHT22;9047;53.486;10.218;2023-05-18T11:06:07;15.30;87.90
17845;DHT22;9047;53.486;10.218;2023-05-18T11:08:45;15.30;88.30
17845;DHT22;9047;53.486;10.218;2023-05-18T11:11:12;15.40;89.30
17845;DHT22;9047;53.486;10.218;2023-05-18T11:13:46;15.60;86.50
17845;DHT22;9047;53.486;10.218;2023-05-18T11:16:16;15.70;87.40
17845;DHT22;9047;53.486;10.218;2023-05-18T11:18:44;15.70;86.30
17845;DHT22;9047;53.486;10.218;2023-05-18T11:21:20;15.70;87.60
17845;DHT22;9047;53.486;10.218;2023-05-18T11:24:16;15.80;86.60
17845;DHT22;9047;53.486;10.218;2023-05-18T11:26:45;16.00;86.40
17845;DHT22;9047;53.486;10.218;2023-05-18T11:29:22;16.10;87.30
17845;DHT22;9047;53.486;10.218;2023-05-18T11:31:55;16.20;85.70
17845;DHT22;9047;53.486;10.218;2023-05-18T11:34:41;16.30;83.70
17845;DHT22;9047;53.486;10.218;2023-05-18T11:37:13;16.30;84.20
17845;DHT22;9047;53.486;10.218;2023-05-18T11:43:22;16.40;81.90
17845;DHT22;9047;53.486;10.218;2023-05-18T11:45:53;16.30;82.40
17845;DHT22;9047;53.486;10.218;2023-05-18T11:48:22;16.40;84.60
17845;DHT22;9047;53.486;10.218;2023-05-18T11:50:52;16.50;81.80
17845;DHT22;9047;53.486;10.218;2023-05-18T11:53:22;16.50;80.70
17845;DHT22;9047;53.486;10.218;2023-05-18T11:55:51;16.40;81.50
17845;DHT22;9047;53.486;10.218;2023-05-18T11:58:19;16.30;81.20
17845;DHT22;9047;53.486;10.218;2023-05-18T12:00:47;16.30;81.90
17845;DHT22;9047;53.486;10.218;2023-05-18T12:03:16;16.30;82.50
17845;DHT22;9047;53.486;10.218;2023-05-18T12:05:43;16.40;82.10
17845;DHT22;9047;53.486;10.218;2023-05-18T12:08:22;16.60;83.30
17845;DHT22;9047;53.486;10.218;2023-05-18T12:10:54;16.80;82.40
17845;DHT22;9047;53.486;10.218;2023-05-18T12:13:33;16.90;81.30
17845;DHT22;9047;53.486;10.218;2023-05-18T12:16:03;16.80;81.20
17845;DHT22;9047;53.486;10.218;2023-05-18T12:18:38;16.80;80.90
17845;DHT22;9047;53.486;10.218;2023-05-18T12:21:06;16.90;78.90
17845;DHT22;9047;53.486;10.218;2023-05-18T12:23:38;16.80;79.90
17845;DHT22;9047;53.486;10.218;2023-05-18T12:26:05;16.70;80.80
17845;DHT22;9047;53.486;10.218;2023-05-18T12:28:47;16.80;79.70
17845;DHT22;9047;53.486;10.218;2023-05-18T12:31:17;16.80;80.10
17845;DHT22;9047;53.486;10.218;2023-05-18T12:33:44;16.80;79.10
17845;DHT22;9047;53.486;10.218;2023-05-18T12:36:12;16.90;79.30
17845;DHT22;9047;53.486;10.218;2023-05-18T12:38:41;17.00;78.40
17845;DHT22;9047;53.486;10.218;2023-05-18T12:41:08;17.00;78.30
17845;DHT22;9047;53.486;10.218;2023-05-18T12:43:35;17.10;79.80
17845;DHT22;9047;53.486;10.218;2023-05-18T12:46:03;17.20;78.60
17845;DHT22;9047;53.486;10.218;2023-05-18T12:48:34;17.30;79.50
17845;DHT22;9047;53.486;10.218;2023-05-18T12:51:03;17.40;79.40
17845;DHT22;9047;53.486;10.218;2023-05-18T12:53:41;17.40;80.20
17845;DHT22;9047;53.486;10.218;2023-05-18T12:56:10;17.40;79.30
17845;DHT22;9047;53.486;10.218;2023-05-18T12:58:38;17.40;79.80
17845;DHT22;9047;53.486;10.218;2023-05-18T13:01:09;17.50;77.20
17845;DHT22;9047;53.486;10.218;2023-05-18T13:03:38;17.50;77.70
17845;DHT22;9047;53.486;10.218;2023-05-18T13:06:08;17.50;78.10
17845;DHT22;9047;53.486;10.218;2023-05-18T13:08:47;17.50;78.00
17845;DHT22;9047;53.486;10.218;2023-05-18T13:11:14;17.60;79.30
17845;DHT22;9047;53.486;10.218;2023-05-18T13:14:00;17.60;79.90
17845;DHT22;9047;53.486;10.218;2023-05-18T13:16:27;17.70;78.20
17845;DHT22;9047;53.486;10.218;2023-05-18T13:18:56;17.80;78.50
17845;DHT22;9047;53.486;10.218;2023-05-18T13:21:23;17.80;79.60
17845;DHT22;9047;53.486;10.218;2023-05-18T13:23:52;17.90;78.80
17845;DHT22;9047;53.486;10.218;2023-05-18T13:26:20;17.90;79.60
17845;DHT22;9047;53.486;10.218;2023-05-18T13:28:51;18.00;79.20
17845;DHT22;9047;53.486;10.218;2023-05-18T13:31:19;18.00;76.50
17845;DHT22;9047;53.486;10.218;2023-05-18T13:33:47;18.10;77.90
17845;DHT22;9047;53.486;10.218;2023-05-18T13:36:14;18.00;78.10
17845;DHT22;9047;53.486;10.218;2023-05-18T13:38:42;18.00;79.50
17845;DHT22;9047;53.486;10.218;2023-05-18T13:41:11;18.00;78.80
17845;DHT22;9047;53.486;10.218;2023-05-18T13:43:40;18.00;80.30
17845;DHT22;9047;53.486;10.218;2023-05-18T13:46:07;18.00;78.00
17845;DHT22;9047;53.486;10.218;2023-05-18T13:48:36;18.10;76.90
17845;DHT22;9047;53.486;10.218;2023-05-18T13:51:03;17.80;77.60
17845;DHT22;9047;53.486;10.218;2023-05-18T13:53:30;17.80;78.70
17845;DHT22;9047;53.486;10.218;2023-05-18T13:56:01;17.70;77.20
17845;DHT22;9047;53.486;10.218;2023-05-18T13:58:31;17.80;77.30
17845;DHT22;9047;53.486;10.218;2023-05-18T14:01:03;17.80;77.20
17845;DHT22;9047;53.486;10.218;2023-05-18T14:03:32;17.70;78.10
17845;DHT22;9047;53.486;10.218;2023-05-18T14:06:01;17.70;78.60
17845;DHT22;9047;53.486;10.218;2023-05-18T14:08:28;17.60;78.60
17845;DHT22;9047;53.486;10.218;2023-05-18T14:10:56;17.60;77.40
17845;DHT22;9047;53.486;10.218;2023-05-18T14:13:23;17.70;76.70
17845;DHT22;9047;53.486;10.218;2023-05-18T14:15:51;17.80;76.90
17845;DHT22;9047;53.486;10.218;2023-05-18T14:18:18;17.80;77.30
17845;DHT22;9047;53.486;10.218;2023-05-18T14:20:45;17.90;74.90
17845;DHT22;9047;53.486;10.218;2023-05-18T14:23:16;18.00;76.40
17845;DHT22;9047;53.486;10.218;2023-05-18T14:25:45;18.10;77.10
17845;DHT22;9047;53.486;10.218;2023-05-18T14:28:14;18.10;77.50
17845;DHT22;9047;53.486;10.218;2023-05-18T14:30:42;18.20;78.90
17845;DHT22;9047;53.486;10.218;2023-05-18T14:33:11;18.20;77.90
17845;DHT22;9047;53.486;10.218;2023-05-18T14:35:38;18.20;78.60
17845;DHT22;9047;53.486;10.218;2023-05-18T14:38:05;18.30;77.60
17845;DHT22;9047;53.486;10.218;2023-05-18T14:40:34;18.20;76.30
17845;DHT22;9047;53.486;10.218;2023-05-18T14:43:00;18.20;77.00
17845;DHT22;9047;53.486;10.218;2023-05-18T14:45:28;18.30;76.20
17845;DHT22;9047;53.486;10.218;2023-05-18T14:47:55;18.20;75.70
17845;DHT22;9047;53.486;10.218;2023-05-18T14:50:23;18.30;75.70
17845;DHT22;9047;53.486;10.218;2023-05-18T14:52:51;18.30;75.40
17845;DHT22;9047;53.486;10.218;2023-05-18T14:55:19;18.40;73.20
17845;DHT22;9047;53.486;10.218;2023-05-18T14:57:47;18.40;75.20
17845;DHT22;9047;53.486;10.218;2023-05-18T15:00:15;18.40;74.50
17845;DHT22;9047;53.486;10.218;2023-05-18T15:02:42;18.40;75.20
17845;DHT22;9047;53.486;10.218;2023-05-18T15:05:09;18.40;76.20
17845;DHT22;9047;53.486;10.218;2023-05-18T15:07:37;18.30;76.20
17845;DHT22;9047;53.486;10.218;2023-05-18T15:10:06;18.30;76.40
17845;DHT22;9047;53.486;10.218;2023-05-18T15:12:34;18.20;77.00
17845;DHT22;9047;53.486;10.218;2023-05-18T15:15:02;18.20;76.90
17845;DHT22;9047;53.486;10.218;2023-05-18T15:17:29;18.10;77.60
17845;DHT22;9047;53.486;10.218;2023-05-18T15:19:55;18.20;77.60
17845;DHT22;9047;53.486;10.218;2023-05-18T15:22:22;18.10;75.80
17845;DHT22;9047;53.486;10.218;2023-05-18T15:24:51;18.00;76.60
17845;DHT22;9047;53.486;10.218;2023-05-18T15:27:18;18.10;76.10
17845;DHT22;9047;53.486;10.218;2023-05-18T15:29:45;18.10;77.20
17845;DHT22;9047;53.486;10.218;2023-05-18T15:32:19;18.20;78.10
17845;DHT22;9047;53.486;10.218;2023-05-18T15:34:49;18.20;77.50
17845;DHT22;9047;53.486;10.218;2023-05-18T15:37:17;18.30;77.30
17845;DHT22;9047;53.486;10.218;2023-05-18T15:39:44;18.20;77.30
17845;DHT22;9047;53.486;10.218;2023-05-18T15:42:13;18.20;77.00
17845;DHT22;9047;53.486;10.218;2023-05-18T15:44:41;18.10;76.40
17845;DHT22;9047;53.486;10.218;2023-05-18T15:47:09;18.10;77.70
17845;DHT22;9047;53.486;10.218;2023-05-18T15:49:37;18.20;76.90
17845;DHT22;9047;53.486;10.218;2023-05-18T15:52:07;18.10;76.60
17845;DHT22;9047;53.486;10.218;2023-05-18T15:54:34;18.10;76.20
17845;DHT22;9047;53.486;10.218;2023-05-18T15:57:01;18.00;77.30
17845;DHT22;9047;53.486;10.218;2023-05-18T15:59:30;18.00;77.00
17845;DHT22;9047;53.486;10.218;2023-05-18T16:01:57;18.00;77.90
17845;DHT22;9047;53.486;10.218;2023-05-18T16:04:24;17.90;77.40
17845;DHT22;9047;53.486;10.218;2023-05-18T16:06:52;17.90;78.10
17845;DHT22;9047;53.486;10.218;2023-05-18T16:09:19;17.90;77.90
17845;DHT22;9047;53.486;10.218;2023-05-18T16:11:46;17.90;77.60